Etusivu
METAR-TAF:

METAR-TAF

Lentoasemat :

Wattisham, Englanti

Leveyspiiri: 52-07N, Pituuspiiri: 000-58E, korkeus merenpinnasta: 87 m

Tämänhetkinen sää

Tämä raportti tehtiin 37 minuuttia sitten, kello 03.50 UTC
Tuuli 4 kn lounaasta
Lämpötila 5°C
Kosteus 93%
Ilmanpaine 1024 hPa
Näkyvyys: 7000 m
utua

METAR: EGUW 190350Z AUTO 23004KT 7000 BR FEW034/// BKN045/// 05/04 Q1024 RERA

Aika: 04:27 (04:27 UTC)

Sääennuste

Tämä raportti tehtiin 8 tuntia ja 57 minuuttia sitten, kello 19.30 UTC
Ennuste voimassa 18. päivästä klo 21 UTC - 19. päivään klo 01 UTC
Tuuli 4 kn lounaasta
Näkyvyys 10 km tai enemmän
Muutamia pilviä 3000 ft:n korkeudessa

TAF: EGUW 181930Z 1821/1901 23004KT 9999 FEW030

Säähavainnot ja -ennusteet yli 4000 lentoasemalta (METAR- ja TAF-raportit).

Käytössä olevat sääasemat on merkitty karttaan keltaisilla ja punaisilla pisteillä.

Aseta hiiri pisteen päälle nähdäksesi sääaseman nimen.

Klikkaa sitten nähdäksesi säähavainnot ja -ennusteet.

Kartan vaihtaminen: klikkaa mustalla rastilla varustettuja vihreitä pisteitä, niin voit zoomata sisään; viivalla varustettua vihreää pistettä, niin voit zoomata ulos tai vihreitä nuolia, niin pääset viereisille kartoille.


METAR-TAF: